Time;durP1;ratioP1;P1;durP2;ratioP2;P2;SDS_P1;SDS_P2;PMS_P1;PMS_P2;Temp;Humidity;BMP_temperature;BMP_pressure;BME280_temperature;BME280_humidity;BME280_pressure;Samples;Min_cycle;Max_cycle;Signal;HPM_P1;HPM_P2
2022/07/02 00:02:26;;;;;;;46.38;42.55;;;;;;;21.12;100.00;101026.72;6098606;23;20439;-87
2022/07/02 00:05:00;;;;;;;53.15;48.90;;;;;;;21.08;100.00;101033.72;6100161;23;20022;-86
2022/07/02 00:07:29;;;;;;;47.65;43.30;;;;;;;20.97;100.00;101024.00;6100458;23;20022;-88
2022/07/02 00:10:13;;;;;;;49.05;45.45;;;;;;;20.84;100.00;101033.41;6101323;23;20339;-86
2022/07/02 00:12:44;;;;;;;47.03;43.25;;;;;;;21.01;100.00;101031.28;6099343;23;20022;-88
2022/07/02 00:15:21;;;;;;;48.72;44.47;;;;;;;21.18;100.00;101036.44;6103836;23;20043;-86
2022/07/02 00:17:54;;;;;;;53.50;48.60;;;;;;;21.12;100.00;101028.56;6101111;23;20436;-87
2022/07/02 00:20:29;;;;;;;49.28;45.08;;;;;;;21.24;100.00;101029.13;6100580;23;20023;-87
2022/07/02 00:22:58;;;;;;;51.45;47.33;;;;;;;21.18;100.00;101020.22;6103330;23;20028;-86
2022/07/02 00:25:29;;;;;;;52.22;47.92;;;;;;;21.27;100.00;101026.72;6104648;23;20022;-88
2022/07/02 00:28:04;;;;;;;48.00;44.20;;;;;;;21.26;100.00;101027.78;6104729;23;20022;-87
2022/07/02 00:30:42;;;;;;;46.63;42.92;;;;;;;21.16;100.00;101030.47;6101801;23;20034;-88
2022/07/02 00:33:12;;;;;;;47.70;43.90;;;;;;;21.15;100.00;101022.63;6101761;23;20026;-88
2022/07/02 00:35:42;;;;;;;46.22;42.58;;;;;;;20.87;100.00;101026.66;6102779;23;20023;-87
2022/07/02 00:38:26;;;;;;;47.75;43.58;;;;;;;19.97;100.00;101019.56;6098073;23;20026;-87
2022/07/02 00:41:04;;;;;;;49.33;45.33;;;;;;;20.03;100.00;101023.91;6102536;23;20026;-89
2022/07/02 00:43:32;;;;;;;52.10;47.75;;;;;;;20.44;100.00;101028.66;6098370;23;20030;-87
2022/07/02 00:46:01;;;;;;;49.85;45.55;;;;;;;20.22;100.00;101028.84;6104541;23;20030;-88
2022/07/02 00:48:44;;;;;;;51.42;47.22;;;;;;;20.33;100.00;101033.19;6102323;23;20026;-89
2022/07/02 00:51:20;;;;;;;55.08;50.85;;;;;;;20.64;100.00;101023.38;6100157;23;20019;-88
2022/07/02 00:53:59;;;;;;;57.00;52.38;;;;;;;20.54;100.00;101020.63;6100645;23;20030;-88
2022/07/02 00:56:26;;;;;;;52.05;47.42;;;;;;;20.35;100.00;101025.66;6099790;23;20033;-86
2022/07/02 00:59:03;;;;;;;54.45;49.65;;;;;;;20.63;100.00;101020.94;6099493;23;20460;-86
2022/07/02 01:01:43;;;;;;;54.10;49.50;;;;;;;20.69;100.00;101025.25;6099570;23;20504;-88
2022/07/02 01:04:19;;;;;;;51.97;47.42;;;;;;;20.61;100.00;101031.19;6101701;23;20029;-87
2022/07/02 01:07:01;;;;;;;52.28;48.05;;;;;;;20.46;100.00;101027.34;6100392;23;20089;-88
2022/07/02 01:12:24;;;;;;;54.88;50.13;;;;;;;20.35;100.00;101031.06;6100825;23;20097;-88
2022/07/02 01:14:58;;;;;;;50.30;46.05;;;;;;;20.49;100.00;101034.91;6102677;23;20448;-87
2022/07/02 01:17:35;;;;;;;49.08;44.47;;;;;;;20.39;100.00;101032.13;6100321;23;20038;-87
2022/07/02 01:20:15;;;;;;;47.42;43.30;;;;;;;20.23;100.00;101028.56;6100408;23;20034;-88
2022/07/02 01:22:44;;;;;;;44.53;40.50;;;;;;;20.33;100.00;101025.09;6103999;23;20028;-87
2022/07/02 01:25:13;;;;;;;44.20;39.85;;;;;;;19.57;100.00;101028.13;6102686;23;20022;-86
2022/07/02 01:27:50;;;;;;;48.13;43.75;;;;;;;19.56;100.00;101029.22;6102039;23;20023;-88
2022/07/02 01:30:22;;;;;;;53.75;49.15;;;;;;;19.67;100.00;101026.38;6099908;23;20018;-87
2022/07/02 01:32:52;;;;;;;51.78;47.30;;;;;;;19.63;100.00;101024.41;6103179;23;20022;-85
2022/07/02 01:35:24;;;;;;;52.60;48.20;;;;;;;19.85;100.00;101035.13;6107907;23;20086;-87
2022/07/02 01:38:06;;;;;;;51.35;47.25;;;;;;;19.65;100.00;101041.16;6101432;23;20022;-86
2022/07/02 01:40:42;;;;;;;52.97;48.45;;;;;;;19.68;100.00;101035.25;6104333;23;20026;-88
2022/07/02 01:43:24;;;;;;;52.20;47.60;;;;;;;19.51;100.00;101035.38;6102767;23;20033;-89
2022/07/02 01:45:53;;;;;;;52.72;48.22;;;;;;;20.01;100.00;101036.81;6070412;23;20094;-87
2022/07/02 01:48:24;;;;;;;58.22;53.45;;;;;;;20.17;100.00;101036.91;6078327;23;20444;-88
2022/07/02 01:50:59;;;;;;;54.80;50.35;;;;;;;20.11;100.00;101036.88;6071002;23;20099;-87
2022/07/02 01:53:37;;;;;;;51.03;46.42;;;;;;;20.01;100.00;101042.22;6077986;23;20030;-87
2022/07/02 01:56:04;;;;;;;50.72;46.22;;;;;;;20.19;100.00;101045.56;6072897;23;20531;-88
2022/07/02 01:58:32;;;;;;;50.78;46.67;;;;;;;20.11;100.00;101041.44;6069186;23;20019;-90
2022/07/02 02:00:58;;;;;;;51.50;47.22;;;;;;;19.96;100.00;101044.06;6064686;23;20026;-90
2022/07/02 02:03:25;;;;;;;47.22;43.22;;;;;;;20.27;100.00;101050.44;6097641;23;20030;-88
2022/07/02 02:05:53;;;;;;;46.78;42.55;;;;;;;20.22;100.00;101048.53;6097473;23;20033;-90
2022/07/02 02:08:20;;;;;;;46.75;42.25;;;;;;;19.97;100.00;101048.38;6098368;23;20022;-89
2022/07/02 02:10:48;;;;;;;49.95;45.25;;;;;;;20.12;100.00;101052.00;6098388;23;20022;-89
2022/07/02 02:13:15;;;;;;;45.30;41.40;;;;;;;20.30;100.00;101064.22;6098873;23;20019;-89
2022/07/02 02:15:41;;;;;;;46.72;42.38;;;;;;;19.96;100.00;101068.31;6098297;23;20026;-89
2022/07/02 02:18:08;;;;;;;44.67;40.45;;;;;;;20.06;100.00;101058.44;6098578;23;20022;-89
2022/07/02 02:20:35;;;;;;;44.72;40.92;;;;;;;19.48;100.00;101062.00;6098488;23;20022;-90
2022/07/02 02:23:04;;;;;;;46.88;42.83;;;;;;;19.39;100.00;101061.66;6098965;23;20033;-89
2022/07/02 02:25:31;;;;;;;49.53;45.15;;;;;;;19.89;100.00;101065.88;6097859;23;20022;-89
2022/07/02 02:27:59;;;;;;;52.30;47.78;;;;;;;20.03;100.00;101074.28;6099438;23;20031;-88
2022/07/02 02:30:26;;;;;;;46.33;42.33;;;;;;;20.07;100.00;101061.94;6100043;23;20018;-89
2022/07/02 02:32:53;;;;;;;49.28;45.15;;;;;;;19.94;100.00;101059.69;6100666;23;20018;-89
2022/07/02 02:35:20;;;;;;;49.33;45.03;;;;;;;20.03;100.00;101077.81;6099984;23;20026;-88
2022/07/02 02:37:47;;;;;;;48.70;44.40;;;;;;;20.01;100.00;101068.38;6102371;23;20023;-91
2022/07/02 02:40:14;;;;;;;48.20;44.13;;;;;;;19.56;100.00;101073.13;6099938;23;20022;-89
2022/07/02 02:42:41;;;;;;;52.22;47.92;;;;;;;19.26;100.00;101070.97;6101108;23;20448;-90
2022/07/02 02:45:20;;;;;;;49.67;45.65;;;;;;;18.98;100.00;101077.44;6099988;23;20027;-90
2022/07/02 02:47:56;;;;;;;48.63;44.53;;;;;;;19.54;100.00;101075.25;6100826;23;20022;-88
2022/07/02 02:50:32;;;;;;;47.22;42.95;;;;;;;19.56;100.00;101078.50;6100860;23;20018;-89
2022/07/02 02:53:06;;;;;;;49.53;45.63;;;;;;;19.67;100.00;101085.66;6100478;23;20031;-90
2022/07/02 02:58:54;;;;;;;45.05;41.75;;;;;;;19.83;100.00;101108.13;6101072;23;20026;-90
2022/07/02 03:01:22;;;;;;;45.85;42.05;;;;;;;19.38;100.00;101101.25;6110146;23;20057;-89
2022/07/02 03:04:09;;;;;;;47.72;44.05;;;;;;;19.81;100.00;101106.75;6129634;23;20033;-88
2022/07/02 03:07:13;;;;;;;44.33;40.63;;;;;;;19.71;100.00;101106.69;6129740;23;20084;-88
2022/07/02 03:09:52;;;;;;;44.92;41.33;;;;;;;19.96;100.00;101104.19;6130341;23;20383;-89
2022/07/02 03:12:26;;;;;;;45.47;41.70;;;;;;;20.03;100.00;101102.09;6129550;23;20017;-89
2022/07/02 03:14:54;;;;;;;45.17;41.47;;;;;;;19.96;100.00;101104.19;6130071;23;20022;-88
2022/07/02 03:17:23;;;;;;;51.30;47.40;;;;;;;19.72;100.00;101101.03;6129916;23;20032;-87
2022/07/02 03:19:57;;;;;;;52.47;47.97;;;;;;;19.82;100.00;101103.00;6130275;23;20096;-90
2022/07/02 03:22:24;;;;;;;49.78;45.35;;;;;;;19.57;100.00;101106.25;6131295;23;20028;-86
2022/07/02 03:24:54;;;;;;;48.08;43.47;;;;;;;19.99;100.00;101103.66;6130046;23;20025;-88
2022/07/02 03:27:31;;;;;;;46.15;41.72;;;;;;;20.09;100.00;101105.59;6129983;23;20018;-88
2022/07/02 03:30:32;;;;;;;46.15;41.75;;;;;;;20.30;100.00;101106.53;6129795;23;20029;-89
2022/07/02 03:33:08;;;;;;;48.00;43.55;;;;;;;20.40;100.00;101111.19;6129722;23;20026;-89
2022/07/02 03:35:51;;;;;;;46.67;42.38;;;;;;;20.68;100.00;101113.50;6128842;23;20014;-88
2022/07/02 03:38:31;;;;;;;48.58;43.70;;;;;;;20.72;100.00;101116.50;6132650;23;20032;-87
2022/07/02 03:41:13;;;;;;;44.05;40.42;;;;;;;20.79;100.00;101117.06;6128952;23;20022;-88
2022/07/02 03:43:59;;;;;;;46.42;42.92;;;;;;;20.93;100.00;101117.38;6127881;23;20025;-88
2022/07/02 03:46:50;;;;;;;45.13;41.42;;;;;;;21.11;100.00;101108.78;6128368;23;20038;-88
2022/07/02 03:49:20;;;;;;;43.58;40.30;;;;;;;21.07;100.00;101115.00;6128295;23;20036;-90
2022/07/02 03:51:47;;;;;;;46.17;42.38;;;;;;;21.23;100.00;101108.53;6128217;23;20026;-87
2022/07/02 03:54:16;;;;;;;46.67;43.58;;;;;;;21.42;100.00;101114.25;6128276;23;20033;-88
2022/07/02 03:56:58;;;;;;;44.65;41.22;;;;;;;21.33;100.00;101113.16;6128458;23;20022;-89
2022/07/02 03:59:39;;;;;;;46.97;43.40;;;;;;;21.38;100.00;101113.19;6128447;23;20018;-89
2022/07/02 04:02:05;;;;;;;45.20;41.70;;;;;;;21.49;100.00;101112.13;6128160;23;20025;-87
2022/07/02 04:04:35;;;;;;;44.33;40.83;;;;;;;21.39;100.00;101110.22;6127997;23;20335;-89
2022/07/02 04:07:02;;;;;;;45.53;41.60;;;;;;;21.66;100.00;101112.66;6127074;23;20030;-86
2022/07/02 04:09:29;;;;;;;42.95;39.75;;;;;;;21.88;100.00;101119.69;6127612;23;20042;-88
2022/07/02 04:12:04;;;;;;;44.05;40.95;;;;;;;21.94;100.00;101127.53;6127442;23;20026;-87
2022/07/02 04:14:31;;;;;;;43.55;40.40;;;;;;;21.89;100.00;101124.00;6127976;23;20093;-89
2022/07/02 04:17:05;;;;;;;44.15;40.85;;;;;;;21.96;100.00;101119.13;6127774;23;20018;-88
2022/07/02 04:19:32;;;;;;;41.63;38.50;;;;;;;22.17;100.00;101130.75;6127216;23;20105;-89
2022/07/02 04:22:01;;;;;;;42.70;39.38;;;;;;;22.27;100.00;101136.19;6127965;23;20071;-89
2022/07/02 04:24:36;;;;;;;40.22;37.38;;;;;;;22.17;100.00;101128.88;6127330;23;20026;-89
2022/07/02 04:27:12;;;;;;;40.08;36.90;;;;;;;22.31;100.00;101139.13;6127350;23;20018;-89
2022/07/02 04:29:40;;;;;;;42.72;39.53;;;;;;;22.37;100.00;101136.13;6127157;23;20014;-90
2022/07/02 04:32:14;;;;;;;44.88;41.60;;;;;;;22.57;100.00;101134.44;6127738;23;20029;-88
2022/07/02 04:34:46;;;;;;;42.97;39.72;;;;;;;22.51;100.00;101133.69;6127723;23;20022;-86
2022/07/02 04:37:15;;;;;;;42.10;38.80;;;;;;;22.63;100.00;101123.34;6127549;23;20026;-89
2022/07/02 04:39:42;;;;;;;43.60;39.97;;;;;;;22.64;100.00;101137.69;6127809;23;20343;-89
2022/07/02 04:42:10;;;;;;;41.95;38.88;;;;;;;22.65;100.00;101142.00;6128467;23;20029;-90
2022/07/02 04:44:45;;;;;;;43.30;40.15;;;;;;;22.56;100.00;101138.25;6128157;23;20339;-88
2022/07/02 04:47:25;;;;;;;43.38;40.17;;;;;;;23.04;100.00;101150.25;6127558;23;20336;-86
2022/07/02 04:50:00;;;;;;;40.70;37.90;;;;;;;23.21;100.00;101149.09;6128260;23;20434;-88
2022/07/02 04:52:39;;;;;;;36.67;33.85;;;;;;;24.05;100.00;101146.28;6130292;23;20081;-90
2022/07/02 04:55:16;;;;;;;37.67;34.65;;;;;;;23.29;100.00;101157.41;6129833;23;20029;-87
2022/07/02 04:57:56;;;;;;;39.08;36.15;;;;;;;23.40;100.00;101146.53;6128070;23;20025;-88
2022/07/02 05:00:32;;;;;;;39.50;36.70;;;;;;;23.57;100.00;101148.84;6128353;23;20427;-88
2022/07/02 05:03:06;;;;;;;40.25;37.33;;;;;;;23.42;100.00;101147.88;6128306;23;20101;-89
2022/07/02 05:05:38;;;;;;;37.67;34.70;;;;;;;23.59;100.00;101154.78;6128637;23;20022;-90
2022/07/02 05:08:34;;;;;;;37.90;35.10;;;;;;;23.82;100.00;101159.53;6134030;23;20021;-89
2022/07/02 05:11:18;;;;;;;39.15;36.03;;;;;;;23.86;100.00;101157.06;6128962;23;20026;-90
2022/07/02 05:13:58;;;;;;;38.60;35.47;;;;;;;23.94;100.00;101153.75;6128290;23;20033;-89
2022/07/02 05:16:26;;;;;;;39.38;36.45;;;;;;;24.09;100.00;101150.88;6128659;23;20018;-86
2022/07/02 05:19:06;;;;;;;38.20;35.47;;;;;;;24.39;100.00;101151.66;6131251;23;20021;-88
2022/07/02 05:21:40;;;;;;;37.63;34.72;;;;;;;24.33;100.00;101150.91;6131669;23;20022;-88
2022/07/02 05:24:36;;;;;;;37.53;34.78;;;;;;;24.55;100.00;101150.41;6133089;23;20029;-88
2022/07/02 05:27:10;;;;;;;37.38;34.45;;;;;;;24.66;100.00;101143.78;6132377;23;20033;-89
2022/07/02 05:29:37;;;;;;;36.25;33.72;;;;;;;24.80;100.00;101154.72;6131265;23;20025;-86
2022/07/02 05:32:17;;;;;;;37.55;34.85;;;;;;;24.91;100.00;101158.94;6133349;23;20022;-87
2022/07/02 05:34:44;;;;;;;37.65;34.65;;;;;;;25.06;100.00;101157.13;6131041;23;20029;-86
2022/07/02 05:37:29;;;;;;;37.00;34.33;;;;;;;25.31;100.00;101156.78;6129468;23;20029;-89
2022/07/02 05:40:00;;;;;;;36.63;33.88;;;;;;;25.53;100.00;101163.53;6104013;23;20034;-89
2022/07/02 05:42:33;;;;;;;36.45;33.50;;;;;;;25.69;100.00;101164.09;6098095;23;20022;-87
2022/07/02 05:45:19;;;;;;;34.13;31.38;;;;;;;25.91;100.00;101156.16;6097365;23;20026;-84
2022/07/02 05:47:47;;;;;;;32.83;30.40;;;;;;;26.12;100.00;101162.06;6098340;23;20022;-83
2022/07/02 05:50:25;;;;;;;30.98;28.77;;;;;;;26.18;100.00;101163.56;6097644;23;20316;-85
2022/07/02 05:53:07;;;;;;;32.00;29.60;;;;;;;26.41;100.00;101158.22;6097547;23;20495;-87
2022/07/02 05:55:40;;;;;;;29.27;27.17;;;;;;;26.55;100.00;101152.84;6098225;23;20399;-85
2022/07/02 05:58:23;;;;;;;45.88;42.78;;;;;;;26.85;100.00;101165.81;6097723;23;20031;-86
2022/07/02 06:00:50;;;;;;;42.95;40.33;;;;;;;27.04;100.00;101157.50;6098292;23;20022;-86
2022/07/02 06:03:21;;;;;;;42.17;39.35;;;;;;;27.38;100.00;101159.78;6098537;23;20462;-85
2022/07/02 06:08:46;;;;;;;27.88;25.88;;;;;;;28.12;100.00;101158.53;6100469;23;20098;-86
2022/07/02 06:11:15;;;;;;;27.35;25.23;;;;;;;28.14;100.00;101158.19;6100423;23;20018;-84
2022/07/02 06:13:43;;;;;;;36.97;33.75;;;;;;;28.16;100.00;101155.97;6098796;23;20085;-84
2022/07/02 06:16:14;;;;;;;31.33;28.95;;;;;;;28.07;100.00;101161.38;6097894;23;20018;-83
2022/07/02 06:18:46;;;;;;;29.57;27.43;;;;;;;28.01;100.00;101157.16;6097602;23;20026;-86
2022/07/02 06:21:14;;;;;;;32.80;30.10;;;;;;;28.13;100.00;101156.59;6099572;23;20046;-84
2022/07/02 06:23:50;;;;;;;31.02;28.63;;;;;;;28.35;100.00;101153.00;6099532;23;20033;-84
2022/07/02 06:26:22;;;;;;;30.25;28.05;;;;;;;28.74;100.00;101161.19;6099048;23;20023;-85
2022/07/02 06:28:50;;;;;;;33.15;30.45;;;;;;;28.83;100.00;101155.72;6099059;23;20019;-87
2022/07/02 06:31:22;;;;;;;27.30;25.60;;;;;;;28.89;100.00;101159.13;6100563;23;20085;-86
2022/07/02 06:33:52;;;;;;;25.58;23.90;;;;;;;29.40;80.61;101158.38;6099139;23;20023;-85
2022/07/02 06:36:26;;;;;;;27.58;25.60;;;;;;;30.09;65.57;101168.44;6099257;23;20097;-85
2022/07/02 06:38:54;;;;;;;26.65;24.48;;;;;;;30.22;67.75;101161.16;6101142;23;20026;-85
2022/07/02 06:44:09;;;;;;;26.77;24.88;;;;;;;30.17;61.94;101166.00;6099216;23;20122;-87
2022/07/02 06:46:36;;;;;;;31.70;28.40;;;;;;;30.33;59.72;101170.63;6098328;23;20033;-87
2022/07/02 06:49:18;;;;;;;28.98;26.75;;;;;;;30.45;52.73;101166.41;6097816;23;20019;-85
2022/07/02 06:51:49;;;;;;;26.02;24.30;;;;;;;30.43;58.45;101171.41;6097556;23;20515;-85
2022/07/02 06:54:24;;;;;;;26.55;24.67;;;;;;;30.69;53.30;101168.53;6098229;23;20090;-88
2022/07/02 06:56:53;;;;;;;28.75;26.20;;;;;;;30.84;51.26;101169.94;6098756;23;20045;-85
2022/07/02 06:59:34;;;;;;;28.92;26.30;;;;;;;30.72;50.18;101176.09;6098570;23;20019;-88
2022/07/02 07:02:05;;;;;;;29.15;26.60;;;;;;;30.73;49.32;101166.72;6098955;23;20061;-86
2022/07/02 07:04:34;;;;;;;28.20;25.23;;;;;;;30.95;52.43;101166.44;6098997;23;20440;-88
2022/07/02 07:07:08;;;;;;;28.63;26.25;;;;;;;30.68;58.30;101172.41;6098315;23;20038;-85
2022/07/02 07:09:36;;;;;;;27.67;25.17;;;;;;;30.92;56.18;101169.84;6098143;23;20061;-85
2022/07/02 07:12:09;;;;;;;26.52;24.52;;;;;;;31.00;58.19;101176.44;6098516;23;20022;-87
2022/07/02 07:14:45;;;;;;;27.98;25.40;;;;;;;31.17;59.77;101167.28;6099883;23;20365;-84
2022/07/02 07:17:16;;;;;;;28.88;26.52;;;;;;;31.45;52.32;101176.59;6100528;23;20022;-86
2022/07/02 07:19:48;;;;;;;28.20;25.98;;;;;;;30.91;71.30;101179.22;6100294;23;20485;-86
2022/07/02 07:22:23;;;;;;;27.63;25.45;;;;;;;31.25;54.27;101180.09;6101471;23;20018;-85
2022/07/02 07:24:55;;;;;;;27.23;25.33;;;;;;;31.47;49.60;101190.00;6100092;23;20019;-85
2022/07/02 07:27:25;;;;;;;27.88;25.65;;;;;;;31.44;53.77;101194.19;6100778;23;20025;-85
2022/07/02 07:29:54;;;;;;;29.38;26.85;;;;;;;30.74;85.34;101191.09;6101570;23;20156;-85
2022/07/02 07:32:22;;;;;;;26.25;24.45;;;;;;;31.34;51.10;101194.59;6100135;23;20466;-87
2022/07/02 07:35:03;;;;;;;25.67;23.38;;;;;;;31.44;53.75;101196.16;6100942;23;20030;-89
2022/07/02 07:37:37;;;;;;;27.58;25.17;;;;;;;31.94;51.55;101200.69;6099770;23;20018;-87
2022/07/02 07:40:07;;;;;;;33.45;27.02;;;;;;;31.64;47.77;101202.72;6099757;23;20019;-86
2022/07/02 07:42:42;;;;;;;28.90;26.65;;;;;;;31.64;49.76;101206.28;6101454;23;20034;-84
2022/07/02 07:45:17;;;;;;;28.17;26.38;;;;;;;31.86;47.56;101204.28;6099780;23;20025;-84
2022/07/02 07:47:44;;;;;;;27.48;25.77;;;;;;;31.81;46.75;101190.78;6100055;23;20033;-86
2022/07/02 07:50:21;;;;;;;28.00;26.00;;;;;;;31.76;51.59;101200.03;6099927;23;20344;-84
2022/07/02 07:52:56;;;;;;;25.58;23.88;;;;;;;31.39;67.21;101196.34;6100492;23;20033;-85
2022/07/02 07:55:22;;;;;;;26.30;24.35;;;;;;;31.36;71.68;101195.06;6100602;23;20031;-85
2022/07/02 07:57:54;;;;;;;26.50;24.50;;;;;;;31.81;54.77;101208.06;6099025;23;20029;-85
2022/07/02 08:00:22;;;;;;;27.25;25.35;;;;;;;31.69;52.46;101205.28;6100503;23;20033;-86
2022/07/02 08:03:02;;;;;;;27.50;25.55;;;;;;;32.02;58.26;101208.03;6100796;23;20019;-87
2022/07/02 08:05:33;;;;;;;28.10;26.02;;;;;;;32.01;54.37;101202.88;6099804;23;20023;-87
2022/07/02 08:08:00;;;;;;;26.63;24.43;;;;;;;31.82;48.48;101204.16;6100591;23;20018;-86
2022/07/02 08:10:30;;;;;;;27.67;25.73;;;;;;;31.69;63.91;101210.78;6098863;23;20029;-84
2022/07/02 08:13:00;;;;;;;30.70;28.35;;;;;;;31.95;54.39;101210.53;6099722;23;20022;-84
2022/07/02 08:15:29;;;;;;;29.20;27.33;;;;;;;32.10;58.96;101209.06;6098846;23;20022;-86
2022/07/02 08:17:56;;;;;;;28.70;26.80;;;;;;;32.12;48.55;101210.34;6098437;23;20019;-85
2022/07/02 08:20:36;;;;;;;29.10;27.30;;;;;;;32.59;53.92;101209.97;6099236;23;20022;-84
2022/07/02 08:23:17;;;;;;;30.45;28.42;;;;;;;32.47;57.67;101212.72;6099281;23;20030;-86
2022/07/02 08:25:47;;;;;;;29.83;27.67;;;;;;;32.45;60.58;101212.25;6099360;23;20104;-84
2022/07/02 08:28:17;;;;;;;30.13;27.83;;;;;;;32.45;48.17;101216.97;6099082;23;20238;-86
2022/07/02 08:30:45;;;;;;;28.33;26.02;;;;;;;32.45;49.24;101211.47;6098798;23;20042;-84
2022/07/02 08:33:18;;;;;;;27.13;25.35;;;;;;;32.64;47.35;101208.94;6098496;23;20028;-86
2022/07/02 08:35:49;;;;;;;26.73;24.65;;;;;;;32.57;47.91;101220.50;6099963;23;20106;-83
2022/07/02 08:38:20;;;;;;;28.93;26.93;;;;;;;32.60;49.26;101219.03;6100157;23;20019;-86
2022/07/02 08:40:53;;;;;;;26.83;24.83;;;;;;;32.54;56.43;101220.41;6101998;23;20018;-84
2022/07/02 08:43:26;;;;;;;28.13;25.90;;;;;;;32.49;49.04;101224.16;6101413;23;20389;-83
2022/07/02 08:46:02;;;;;;;28.17;26.17;;;;;;;32.75;45.29;101214.78;6100329;23;20018;-83
2022/07/02 08:48:31;;;;;;;29.00;26.90;;;;;;;32.57;47.62;101216.97;6099419;23;20026;-82
2022/07/02 08:51:03;;;;;;;28.92;27.13;;;;;;;33.12;48.00;101212.81;6099412;23;20041;-84
2022/07/02 08:53:29;;;;;;;;;;;;;;;32.69;46.33;101216.16;6101463;23;20026;-81
2022/07/02 08:56:02;;;;;;;27.90;25.90;;;;;;;32.94;44.27;101219.69;6099939;23;20315;-82
2022/07/02 08:58:35;;;;;;;30.15;27.85;;;;;;;32.78;47.95;101225.09;6099322;23;20511;-85
2022/07/02 09:01:06;;;;;;;29.40;27.48;;;;;;;32.23;61.04;101218.16;6098462;23;20050;-82
2022/07/02 09:03:44;;;;;;;28.47;26.53;;;;;;;33.13;44.25;101216.34;6098148;23;20520;-84
2022/07/02 09:06:28;;;;;;;26.58;24.77;;;;;;;33.23;47.96;101218.66;6098079;23;20018;-83
2022/07/02 09:09:05;;;;;;;30.23;27.48;;;;;;;32.81;47.31;101225.19;6098516;23;20092;-82
2022/07/02 09:11:35;;;;;;;31.05;28.80;;;;;;;32.75;52.63;101217.53;6099761;23;20026;-82
2022/07/02 09:14:05;;;;;;;31.88;29.85;;;;;;;33.31;41.05;101201.16;6098509;23;20022;-86
2022/07/02 09:16:37;;;;;;;33.83;31.20;;;;;;;32.87;48.40;101217.53;6099113;23;20034;-83
2022/07/02 09:19:08;;;;;;;32.78;30.55;;;;;;;32.84;50.84;101220.97;6098740;23;20517;-83
2022/07/02 09:21:41;;;;;;;31.70;29.60;;;;;;;33.21;44.27;101209.94;6098121;23;20022;-83
2022/07/02 09:24:11;;;;;;;32.35;30.25;;;;;;;33.40;42.45;101207.34;6098842;23;20033;-83
2022/07/02 09:26:38;;;;;;;33.88;31.50;;;;;;;33.14;44.77;101204.22;6098098;23;20034;-84
2022/07/02 09:29:09;;;;;;;31.35;28.98;;;;;;;33.32;50.32;101213.81;6098201;23;20027;-85
2022/07/02 09:31:49;;;;;;;33.37;31.27;;;;;;;33.91;43.49;101204.84;6098287;23;20424;-83
2022/07/02 09:34:25;;;;;;;35.03;32.42;;;;;;;33.17;43.77;101206.28;6098356;23;20022;-84
2022/07/02 09:36:51;;;;;;;34.38;32.17;;;;;;;33.97;42.92;101197.91;6097627;23;20030;-85
2022/07/02 09:39:28;;;;;;;35.13;32.45;;;;;;;33.05;46.36;101205.16;6096606;23;20030;-84
2022/07/02 09:41:57;;;;;;;31.30;29.10;;;;;;;33.50;44.32;101203.31;6096979;23;20122;-83
2022/07/02 09:44:28;;;;;;;31.48;29.35;;;;;;;33.59;44.27;101205.91;6096156;23;20105;-83
2022/07/02 09:46:57;;;;;;;33.85;30.55;;;;;;;33.87;40.31;101208.66;6098280;23;20030;-86
2022/07/02 09:49:29;;;;;;;31.60;29.45;;;;;;;33.88;41.87;101210.25;6097360;23;20089;-84
2022/07/02 09:52:30;;;;;;;32.35;30.02;;;;;;;33.23;47.28;101210.38;6096996;23;20022;-84
2022/07/02 09:55:04;;;;;;;32.58;30.08;;;;;;;32.94;54.54;101198.47;6096872;23;20093;-84
2022/07/02 09:57:34;;;;;;;34.70;32.30;;;;;;;34.08;40.84;101203.75;6097807;23;20054;-84
2022/07/02 10:00:17;;;;;;;34.45;31.75;;;;;;;33.58;47.60;101204.31;6102695;23;20022;-86
2022/07/02 10:02:54;;;;;;;34.33;32.00;;;;;;;32.80;60.05;101204.34;6101108;23;20023;-88
2022/07/02 10:05:26;;;;;;;31.83;29.48;;;;;;;34.31;44.85;101205.88;6101794;23;20037;-87
2022/07/02 10:07:55;;;;;;;32.90;30.60;;;;;;;34.62;41.50;101199.59;6099826;23;20466;-85
2022/07/02 10:10:34;;;;;;;31.73;29.17;;;;;;;34.33;42.74;101201.59;6100139;23;20395;-88
2022/07/02 10:13:01;;;;;;;36.30;33.28;;;;;;;34.34;45.38;101196.91;6099250;23;20022;-85
2022/07/02 10:15:43;;;;;;;29.80;27.60;;;;;;;33.20;50.78;101205.59;6100555;23;20030;-85
2022/07/02 10:18:12;;;;;;;31.98;29.15;;;;;;;32.70;52.27;101198.50;6100439;23;20085;-84
2022/07/02 10:20:41;;;;;;;34.40;31.63;;;;;;;33.34;53.21;101191.41;6099109;23;20038;-85
2022/07/02 10:23:15;;;;;;;34.13;31.75;;;;;;;32.79;50.87;101194.50;6098926;23;20026;-84
2022/07/02 10:25:55;;;;;;;35.10;32.50;;;;;;;34.22;44.33;101199.75;6100447;23;20074;-87
2022/07/02 10:28:24;;;;;;;34.67;31.65;;;;;;;34.36;41.51;101195.38;6100391;23;20018;-84
2022/07/02 10:30:54;;;;;;;32.17;29.85;;;;;;;34.14;42.36;101187.75;6099421;23;20030;-85
2022/07/02 10:33:30;;;;;;;30.10;27.77;;;;;;;34.14;43.79;101190.50;6098513;23;20023;-84
2022/07/02 10:36:09;;;;;;;33.50;31.05;;;;;;;33.57;47.38;101181.50;6097886;23;20027;-87
2022/07/02 10:38:47;;;;;;;31.23;28.92;;;;;;;34.37;42.71;101185.94;6097395;23;20026;-85
2022/07/02 10:41:27;;;;;;;33.53;31.02;;;;;;;34.90;42.11;101171.03;6097483;23;20073;-84
2022/07/02 10:43:56;;;;;;;32.67;30.27;;;;;;;34.29;42.09;101177.88;6096344;23;20029;-85
2022/07/02 10:46:27;;;;;;;33.40;30.98;;;;;;;34.27;47.25;101177.44;6094699;23;20486;-85
2022/07/02 10:48:57;;;;;;;30.85;28.65;;;;;;;34.14;47.54;101185.78;6097517;23;20028;-84
2022/07/02 10:51:27;;;;;;;35.05;32.55;;;;;;;34.87;43.78;101181.63;6098547;23;20026;-84
2022/07/02 10:53:59;;;;;;;38.10;35.25;;;;;;;35.10;40.94;101176.25;6098939;23;20026;-85
2022/07/02 10:56:46;;;;;;;35.60;33.10;;;;;;;34.94;44.50;101180.19;6097402;23;20028;-86
2022/07/02 10:59:24;;;;;;;35.47;32.92;;;;;;;34.18;51.57;101172.88;6098409;23;20022;-85
2022/07/02 11:02:02;;;;;;;34.83;32.05;;;;;;;34.56;42.78;101171.47;6098731;23;20033;-83
2022/07/02 11:04:29;;;;;;;35.83;32.63;;;;;;;34.20;47.63;101167.84;6100016;23;20097;-83
2022/07/02 11:07:12;;;;;;;34.50;31.38;;;;;;;34.46;45.46;101168.44;6098078;23;20027;-85
2022/07/02 11:09:49;;;;;;;32.58;30.05;;;;;;;35.42;41.74;101169.78;6098196;23;20471;-83
2022/07/02 11:12:23;;;;;;;32.78;30.17;;;;;;;34.57;40.13;101167.56;6098220;23;20101;-84
2022/07/02 11:14:56;;;;;;;32.15;29.75;;;;;;;34.79;44.03;101157.00;6097576;23;20416;-84
2022/07/02 11:17:25;;;;;;;31.90;29.60;;;;;;;34.96;42.67;101148.31;6099590;23;20033;-86
2022/07/02 11:19:58;;;;;;;33.63;31.13;;;;;;;33.81;52.86;101152.22;6098977;23;20089;-84
2022/07/02 11:22:34;;;;;;;33.55;30.60;;;;;;;34.04;52.28;101160.72;6101977;23;20037;-85
2022/07/02 11:25:09;;;;;;;35.25;32.85;;;;;;;34.28;50.96;101155.00;6099000;23;20022;-87
2022/07/02 11:27:55;;;;;;;32.03;29.63;;;;;;;35.10;42.53;101156.94;6102406;23;20033;-85
2022/07/02 11:30:25;;;;;;;34.08;31.77;;;;;;;34.64;49.02;101153.91;6099807;23;20045;-85
2022/07/02 11:33:21;;;;;;;33.30;30.90;;;;;;;35.38;41.53;101153.16;6104545;23;20019;-84
2022/07/02 11:36:08;;;;;;;34.25;31.33;;;;;;;35.45;41.85;101150.50;6100093;23;20305;-82
2022/07/02 11:38:50;;;;;;;34.70;32.30;;;;;;;35.43;41.93;101163.88;6101757;23;20018;-84
2022/07/02 11:41:21;;;;;;;;;;;;;;;35.48;42.83;101154.50;6097701;23;20030;-80
2022/07/02 11:43:48;;;;;;;34.17;31.77;;;;;;;35.65;41.95;101156.06;6098128;23;19924;-85
2022/07/02 11:46:30;;;;;;;33.83;31.40;;;;;;;35.05;45.47;101159.97;6098019;23;20392;-86